createdAt,value
2018-02-25T00:00:08.732Z,929.68
2018-02-25T00:00:21.763Z,929.7
2018-02-25T00:00:34.791Z,929.71
2018-02-25T00:00:47.419Z,929.73
2018-02-25T00:00:59.569Z,929.76
2018-02-25T00:01:12.621Z,929.71
2018-02-25T00:01:25.686Z,929.71
2018-02-25T00:01:38.742Z,929.73
2018-02-25T00:01:51.253Z,929.74
2018-02-25T00:02:03.866Z,929.74
2018-02-25T00:02:16.928Z,929.78
2018-02-25T00:02:29.150Z,929.73
2018-02-25T00:02:42.229Z,929.73
2018-02-25T00:02:55.246Z,929.73
2018-02-25T00:03:08.285Z,929.73
2018-02-25T00:03:20.890Z,929.73
2018-02-25T00:03:33.929Z,929.79
2018-02-25T00:03:46.535Z,929.78
2018-02-25T00:03:59.176Z,929.74
2018-02-25T00:04:12.233Z,929.75
2018-02-25T00:04:25.270Z,929.79
2018-02-25T00:04:37.404Z,929.74
2018-02-25T00:04:50.446Z,929.74
2018-02-25T00:05:03.477Z,929.78
2018-02-25T00:05:16.471Z,929.81
2018-02-25T00:05:28.601Z,929.79
2018-02-25T00:05:41.726Z,929.76
2018-02-25T00:05:54.314Z,929.79
2018-02-25T00:06:06.885Z,929.77
2018-02-25T00:06:19.475Z,929.76
2018-02-25T00:06:32.561Z,929.79
2018-02-25T00:06:45.119Z,929.77
2018-02-25T00:06:58.180Z,929.78
2018-02-25T00:07:11.198Z,929.76
2018-02-25T00:07:24.209Z,929.76
2018-02-25T00:07:36.774Z,929.78
2018-02-25T00:07:49.810Z,929.77
2018-02-25T00:08:02.436Z,929.78
2018-02-25T00:08:15.479Z,929.76
2018-02-25T00:08:28.119Z,929.79
2018-02-25T00:08:41.141Z,929.79
2018-02-25T00:08:53.737Z,929.79
2018-02-25T00:09:06.744Z,929.83
2018-02-25T00:09:19.812Z,929.76
2018-02-25T00:09:32.367Z,929.76
2018-02-25T00:09:45.372Z,929.82
2018-02-25T00:09:57.919Z,929.8
2018-02-25T00:10:10.941Z,929.78
2018-02-25T00:10:24.045Z,929.81
2018-02-25T00:10:37.089Z,929.79
2018-02-25T00:10:49.176Z,929.79
2018-02-25T00:11:00.799Z,929.84
2018-02-25T00:11:13.402Z,929.87
2018-02-25T00:11:27.529Z,929.86
2018-02-25T00:11:40.611Z,929.84
2018-02-25T00:11:53.159Z,929.83
2018-02-25T00:12:05.723Z,929.82
2018-02-25T00:12:18.759Z,929.82
2018-02-25T00:12:31.754Z,929.81
2018-02-25T00:12:44.780Z,929.81
2018-02-25T00:12:57.348Z,929.86
2018-02-25T00:13:09.896Z,929.82
2018-02-25T00:13:22.961Z,929.83
2018-02-25T00:13:36.017Z,929.86
2018-02-25T00:13:49.070Z,929.87
2018-02-25T00:14:01.686Z,929.86
2018-02-25T00:14:14.304Z,929.86
2018-02-25T00:14:27.373Z,929.87
2018-02-25T00:14:39.881Z,929.84
2018-02-25T00:14:52.931Z,929.86
2018-02-25T00:15:05.992Z,929.89
2018-02-25T00:15:19.078Z,929.88
2018-02-25T00:15:31.645Z,929.89
2018-02-25T00:15:44.627Z,929.83
2018-02-25T00:15:57.638Z,929.84
2018-02-25T00:16:10.657Z,929.84
2018-02-25T00:16:23.696Z,929.84
2018-02-25T00:16:36.765Z,929.85
2018-02-25T00:16:49.848Z,929.86
2018-02-25T00:17:01.492Z,929.89
2018-02-25T00:17:14.508Z,929.86
2018-02-25T00:17:27.514Z,929.9
2018-02-25T00:17:40.535Z,929.84
2018-02-25T00:17:53.590Z,929.88
2018-02-25T00:18:06.138Z,929.89
2018-02-25T00:18:19.194Z,929.9
2018-02-25T00:18:32.216Z,929.82
2018-02-25T00:18:45.320Z,929.88
2018-02-25T00:18:58.384Z,929.87
2018-02-25T00:19:11.447Z,929.87
2018-02-25T00:19:24.085Z,929.89
2018-02-25T00:19:37.123Z,929.94
2018-02-25T00:19:49.709Z,929.88
2018-02-25T00:20:02.316Z,929.88
2018-02-25T00:20:15.354Z,929.82
2018-02-25T00:20:28.379Z,929.86
2018-02-25T00:20:41.418Z,929.81
2018-02-25T00:20:53.956Z,929.82
2018-02-25T00:21:06.529Z,929.78
2018-02-25T00:21:19.568Z,929.77
2018-02-25T00:21:32.608Z,929.76
2018-02-25T00:21:45.229Z,929.74
2018-02-25T00:21:57.813Z,929.77
2018-02-25T00:22:10.422Z,929.77
2018-02-25T00:22:23.503Z,929.82
2018-02-25T00:22:36.618Z,929.76
2018-02-25T00:22:49.650Z,929.78
2018-02-25T00:23:02.654Z,929.72
2018-02-25T00:23:15.725Z,929.78
2018-02-25T00:23:28.808Z,929.74
2018-02-25T00:23:41.373Z,929.75
2018-02-25T00:23:54.366Z,929.76
2018-02-25T00:24:06.922Z,929.8
2018-02-25T00:24:19.501Z,929.76
2018-02-25T00:24:31.625Z,929.79
2018-02-25T00:24:44.662Z,929.8
2018-02-25T00:24:57.869Z,929.81
2018-02-25T00:25:10.502Z,929.77
2018-02-25T00:25:23.111Z,929.8
2018-02-25T00:25:36.079Z,929.83
2018-02-25T00:25:49.153Z,929.83
2018-02-25T00:26:02.188Z,929.79
2018-02-25T00:26:14.749Z,929.75
2018-02-25T00:26:27.296Z,929.77
2018-02-25T00:26:41.129Z,929.75
2018-02-25T00:26:53.710Z,929.81
2018-02-25T00:27:06.729Z,929.77
2018-02-25T00:27:19.343Z,929.78
2018-02-25T00:27:32.404Z,929.8
2018-02-25T00:27:45.023Z,929.81
2018-02-25T00:27:58.080Z,929.82
2018-02-25T00:28:11.177Z,929.82
2018-02-25T00:28:23.800Z,929.8
2018-02-25T00:28:36.325Z,929.8
2018-02-25T00:28:49.353Z,929.82
2018-02-25T00:29:02.370Z,929.82
2018-02-25T00:29:15.458Z,929.82
2018-02-25T00:29:28.504Z,929.77
2018-02-25T00:29:41.538Z,929.83
2018-02-25T00:29:54.565Z,929.81
2018-02-25T00:30:07.157Z,929.83
2018-02-25T00:30:20.159Z,929.86
2018-02-25T00:30:33.167Z,929.85
2018-02-25T00:30:45.238Z,929.86
2018-02-25T00:30:58.219Z,929.83
2018-02-25T00:31:11.295Z,929.85
2018-02-25T00:31:24.354Z,929.8
2018-02-25T00:31:37.413Z,929.81
2018-02-25T00:31:50.384Z,929.8
2018-02-25T00:32:02.963Z,929.82
2018-02-25T00:32:16.077Z,929.86
2018-02-25T00:32:28.642Z,929.87
2018-02-25T00:32:41.253Z,929.93
2018-02-25T00:32:54.263Z,929.88
2018-02-25T00:33:06.823Z,929.86
2018-02-25T00:33:19.389Z,929.86
2018-02-25T00:33:32.375Z,929.94
2018-02-25T00:33:45.398Z,929.89
2018-02-25T00:33:58.508Z,929.9
2018-02-25T00:34:11.575Z,929.87
2018-02-25T00:34:24.212Z,929.86
2018-02-25T00:34:35.865Z,929.92
2018-02-25T00:34:48.465Z,929.91
2018-02-25T00:35:00.549Z,929.91
2018-02-25T00:35:13.600Z,929.93
2018-02-25T00:35:25.645Z,929.87
2018-02-25T00:35:38.701Z,929.89
2018-02-25T00:35:51.268Z,929.9
2018-02-25T00:36:03.797Z,929.88
2018-02-25T00:36:16.843Z,929.82
2018-02-25T00:36:29.897Z,929.87
2018-02-25T00:36:43.065Z,929.93
2018-02-25T00:36:55.633Z,929.89
2018-02-25T00:37:08.690Z,929.92
2018-02-25T00:37:21.747Z,929.9
2018-02-25T00:37:34.744Z,929.91
2018-02-25T00:37:47.778Z,929.9
2018-02-25T00:38:00.334Z,929.93
2018-02-25T00:38:13.411Z,929.94
2018-02-25T00:38:25.906Z,929.93
2018-02-25T00:38:38.956Z,929.93
2018-02-25T00:38:51.987Z,929.95
2018-02-25T00:39:04.526Z,929.91
2018-02-25T00:39:17.567Z,929.93
2018-02-25T00:39:29.634Z,929.93
2018-02-25T00:39:42.211Z,929.94
2018-02-25T00:39:55.203Z,929.96
2018-02-25T00:40:07.328Z,929.94
2018-02-25T00:40:19.922Z,929.92
2018-02-25T00:40:32.914Z,929.93
2018-02-25T00:40:45.912Z,929.94
2018-02-25T00:40:58.457Z,929.9
2018-02-25T00:41:11.500Z,929.92
2018-02-25T00:41:24.576Z,929.9
2018-02-25T00:41:37.536Z,929.89
2018-02-25T00:41:50.622Z,929.95
2018-02-25T00:42:03.687Z,929.94
2018-02-25T00:42:16.694Z,929.94
2018-02-25T00:42:29.252Z,929.96
2018-02-25T00:42:42.368Z,929.91
2018-02-25T00:42:55.430Z,929.95
2018-02-25T00:43:08.538Z,929.91
2018-02-25T00:43:21.572Z,929.91
2018-02-25T00:43:36.047Z,929.94
2018-02-25T00:43:49.067Z,929.91
2018-02-25T00:44:01.630Z,929.95
2018-02-25T00:44:14.217Z,929.92
2018-02-25T00:44:26.824Z,929.96
2018-02-25T00:44:38.915Z,929.93
2018-02-25T00:44:51.940Z,929.87
2018-02-25T00:45:04.573Z,929.89
2018-02-25T00:45:17.663Z,929.95
2018-02-25T00:45:29.789Z,929.94
2018-02-25T00:45:42.366Z,929.93
2018-02-25T00:45:54.979Z,929.93
2018-02-25T00:46:08.122Z,929.95
2018-02-25T00:46:21.201Z,929.98
2018-02-25T00:46:33.274Z,929.96
2018-02-25T00:46:46.271Z,929.95
2018-02-25T00:46:59.333Z,929.96
2018-02-25T00:47:12.512Z,929.99
2018-02-25T00:47:25.603Z,930.02
2018-02-25T00:47:38.615Z,929.99
2018-02-25T00:47:51.190Z,929.97
2018-02-25T00:48:03.855Z,930.01
2018-02-25T00:48:16.904Z,929.99
2018-02-25T00:48:29.966Z,930.05
2018-02-25T00:48:42.123Z,930.03
2018-02-25T00:48:55.166Z,930.06
2018-02-25T00:49:08.260Z,930.07
2018-02-25T00:49:21.284Z,930.02
2018-02-25T00:49:33.412Z,930.06
2018-02-25T00:49:46.457Z,930.03
2018-02-25T00:49:59.022Z,930.05
2018-02-25T00:50:12.029Z,930.06
2018-02-25T00:50:24.666Z,930.06
2018-02-25T00:50:37.698Z,930.08
2018-02-25T00:50:50.737Z,930.1
2018-02-25T00:51:02.887Z,930.13
2018-02-25T00:51:15.963Z,930.05
2018-02-25T00:51:28.559Z,930.1
2018-02-25T00:51:41.116Z,930.06
2018-02-25T00:51:54.123Z,930.11
2018-02-25T00:52:07.194Z,930.1
2018-02-25T00:52:20.227Z,930.03
2018-02-25T00:52:33.281Z,930.04
2018-02-25T00:52:45.885Z,930.07
2018-02-25T00:52:58.918Z,930.04
2018-02-25T00:53:11.869Z,930.02
2018-02-25T00:53:24.931Z,930.06
2018-02-25T00:53:38.063Z,930.04
2018-02-25T00:53:50.606Z,930.05
2018-02-25T00:54:03.677Z,930.04
2018-02-25T00:54:16.214Z,930.05
2018-02-25T00:54:28.722Z,930.01
2018-02-25T00:54:41.717Z,930.04
2018-02-25T00:54:54.298Z,930.1
2018-02-25T00:55:07.301Z,930.04
2018-02-25T00:55:20.418Z,930.08
2018-02-25T00:55:33.219Z,930.1
2018-02-25T00:55:45.801Z,930.06
2018-02-25T00:55:58.879Z,930.08
2018-02-25T00:56:11.913Z,930.07
2018-02-25T00:56:24.956Z,930.07
2018-02-25T00:56:37.950Z,930.01
2018-02-25T00:56:52.735Z,930.04
2018-02-25T00:57:05.729Z,930.1
2018-02-25T00:57:18.803Z,930.05
2018-02-25T00:57:31.313Z,930.07
2018-02-25T00:57:43.854Z,930.08
2018-02-25T00:57:56.892Z,930.11
2018-02-25T00:58:09.438Z,930.09
2018-02-25T00:58:22.498Z,930.09
2018-02-25T00:58:35.505Z,930.14
2018-02-25T00:58:48.501Z,930.11
2018-02-25T00:59:01.100Z,930.08
2018-02-25T00:59:14.143Z,930.12
2018-02-25T00:59:27.197Z,930.13
2018-02-25T00:59:39.768Z,930.14
2018-02-25T00:59:52.313Z,930.12
2018-02-25T01:00:04.942Z,930.15
2018-02-25T01:00:17.490Z,930.16
2018-02-25T01:00:30.525Z,930.17
2018-02-25T01:00:43.659Z,930.13
2018-02-25T01:00:56.693Z,930.19
2018-02-25T01:01:09.732Z,930.12
2018-02-25T01:01:22.309Z,930.17
2018-02-25T01:01:34.886Z,930.15
2018-02-25T01:01:47.975Z,930.19
2018-02-25T01:02:00.577Z,930.17
2018-02-25T01:02:13.592Z,930.17
2018-02-25T01:02:26.651Z,930.16
2018-02-25T01:02:39.675Z,930.18
2018-02-25T01:02:52.688Z,930.17
2018-02-25T01:03:05.231Z,930.17
2018-02-25T01:03:18.275Z,930.17
2018-02-25T01:03:31.312Z,930.15
2018-02-25T01:03:43.884Z,930.14
2018-02-25T01:03:56.964Z,930.14
2018-02-25T01:04:10.075Z,930.14
2018-02-25T01:04:23.114Z,930.15
2018-02-25T01:04:36.193Z,930.19
2018-02-25T01:04:48.303Z,930.16
2018-02-25T01:05:00.912Z,930.16
2018-02-25T01:05:13.490Z,930.14
2018-02-25T01:05:26.497Z,930.15
2018-02-25T01:05:39.063Z,930.16
2018-02-25T01:05:51.168Z,930.13
2018-02-25T01:06:03.260Z,930.16
2018-02-25T01:06:15.796Z,930.16
2018-02-25T01:06:27.926Z,930.14
2018-02-25T01:06:40.491Z,930.17
2018-02-25T01:06:53.063Z,930.17
2018-02-25T01:07:05.696Z,930.21
2018-02-25T01:07:18.280Z,930.14
2018-02-25T01:07:30.867Z,930.16
2018-02-25T01:07:43.512Z,930.17
2018-02-25T01:07:56.076Z,930.16
2018-02-25T01:08:08.587Z,930.16
2018-02-25T01:08:21.600Z,930.15
2018-02-25T01:08:34.614Z,930.13
2018-02-25T01:08:47.636Z,930.2
2018-02-25T01:09:00.192Z,930.15
2018-02-25T01:09:12.757Z,930.14
2018-02-25T01:09:25.806Z,930.19
2018-02-25T01:09:38.924Z,930.16
2018-02-25T01:09:51.077Z,930.19
2018-02-25T01:10:04.692Z,930.17
2018-02-25T01:10:17.794Z,930.16
2018-02-25T01:10:30.837Z,930.16
2018-02-25T01:10:42.948Z,930.21
2018-02-25T01:10:55.563Z,930.21
2018-02-25T01:11:08.102Z,930.17
2018-02-25T01:11:21.073Z,930.18
2018-02-25T01:11:34.161Z,930.14
2018-02-25T01:11:47.735Z,930.18
2018-02-25T01:12:00.786Z,930.12
2018-02-25T01:12:13.374Z,930.14
2018-02-25T01:12:26.438Z,930.17
2018-02-25T01:12:39.502Z,930.16
2018-02-25T01:12:52.562Z,930.18
2018-02-25T01:13:05.179Z,930.18
2018-02-25T01:13:18.216Z,930.18
2018-02-25T01:13:31.266Z,930.17
2018-02-25T01:13:44.310Z,930.21
2018-02-25T01:13:57.374Z,930.22
2018-02-25T01:14:10.393Z,930.19
2018-02-25T01:14:22.957Z,930.18
2018-02-25T01:14:35.496Z,930.18
2018-02-25T01:14:48.055Z,930.21
2018-02-25T01:15:00.694Z,930.17
2018-02-25T01:15:13.333Z,930.17
2018-02-25T01:15:26.318Z,930.14
2018-02-25T01:15:39.321Z,930.19
2018-02-25T01:15:53.825Z,930.16
2018-02-25T01:16:06.353Z,930.14
2018-02-25T01:16:19.369Z,930.15
2018-02-25T01:16:32.418Z,930.14
2018-02-25T01:16:45.505Z,930.16
2018-02-25T01:16:58.547Z,930.15
2018-02-25T01:17:11.565Z,930.16
2018-02-25T01:17:24.661Z,930.16
2018-02-25T01:17:37.685Z,930.13
2018-02-25T01:17:50.712Z,930.16
2018-02-25T01:18:03.833Z,930.15
2018-02-25T01:18:16.855Z,930.13
2018-02-25T01:18:29.870Z,930.13
2018-02-25T01:18:42.448Z,930.09
2018-02-25T01:18:55.526Z,930.12
2018-02-25T01:19:08.561Z,930.17
2018-02-25T01:19:21.640Z,930.15
2018-02-25T01:19:33.683Z,930.18
2018-02-25T01:19:46.697Z,930.12
2018-02-25T01:19:59.302Z,930.12
2018-02-25T01:20:12.548Z,930.17
2018-02-25T01:20:25.589Z,930.13
2018-02-25T01:20:38.645Z,930.09
2018-02-25T01:20:51.223Z,930.09
2018-02-25T01:21:03.769Z,930.08
2018-02-25T01:21:16.314Z,930.07
2018-02-25T01:21:28.899Z,930.09
2018-02-25T01:21:41.440Z,930.1
2018-02-25T01:21:53.466Z,930.13
2018-02-25T01:22:06.526Z,930.14
2018-02-25T01:22:19.771Z,930.09
2018-02-25T01:22:32.389Z,930.12
2018-02-25T01:22:45.391Z,930.09
2018-02-25T01:22:58.415Z,930.11
2018-02-25T01:23:10.501Z,930.1
2018-02-25T01:23:22.605Z,930.1
2018-02-25T01:23:35.614Z,930.11
2018-02-25T01:23:48.174Z,930.11
2018-02-25T01:24:00.795Z,930.13
2018-02-25T01:24:13.838Z,930.12
2018-02-25T01:24:26.827Z,930.08
2018-02-25T01:24:39.910Z,930.11
2018-02-25T01:24:52.929Z,930.12
2018-02-25T01:25:06.018Z,930.11
2018-02-25T01:25:19.090Z,930.12
2018-02-25T01:25:32.121Z,930.1
2018-02-25T01:25:44.664Z,930.07
2018-02-25T01:25:57.717Z,930.11
2018-02-25T01:26:10.340Z,930.12
2018-02-25T01:26:23.370Z,930.08
2018-02-25T01:26:36.407Z,930.08
2018-02-25T01:26:49.495Z,930.11
2018-02-25T01:27:02.525Z,930.09
2018-02-25T01:27:15.574Z,930.09
2018-02-25T01:27:28.556Z,930.15
2018-02-25T01:27:41.638Z,930.13
2018-02-25T01:27:54.728Z,930.1
2018-02-25T01:28:07.813Z,930.15
2018-02-25T01:28:20.392Z,930.14
2018-02-25T01:28:33.447Z,930.08
2018-02-25T01:28:46.459Z,930.14
2018-02-25T01:28:58.958Z,930.14
2018-02-25T01:29:11.536Z,930.15
2018-02-25T01:29:24.120Z,930.11
2018-02-25T01:29:37.155Z,930.09
2018-02-25T01:29:50.212Z,930.09
2018-02-25T01:30:03.256Z,930.14
2018-02-25T01:30:15.943Z,930.15
2018-02-25T01:30:28.974Z,930.17
2018-02-25T01:30:41.606Z,930.14
2018-02-25T01:30:54.186Z,930.17
2018-02-25T01:31:07.256Z,930.14
2018-02-25T01:31:20.303Z,930.14
2018-02-25T01:31:33.341Z,930.13
2018-02-25T01:31:46.367Z,930.15
2018-02-25T01:31:58.882Z,930.16
2018-02-25T01:32:11.989Z,930.16
2018-02-25T01:32:24.517Z,930.13
2018-02-25T01:32:37.680Z,930.13
2018-02-25T01:32:50.243Z,930.17
2018-02-25T01:33:02.767Z,930.15
2018-02-25T01:33:15.807Z,930.17
2018-02-25T01:33:28.421Z,930.19
2018-02-25T01:33:41.025Z,930.16
2018-02-25T01:33:53.647Z,930.17
2018-02-25T01:34:06.661Z,930.16
2018-02-25T01:34:19.666Z,930.17
2018-02-25T01:34:32.669Z,930.17
2018-02-25T01:34:45.218Z,930.17
2018-02-25T01:34:58.221Z,930.17
2018-02-25T01:35:11.300Z,930.19
2018-02-25T01:35:24.440Z,930.17
2018-02-25T01:35:36.980Z,930.14
2018-02-25T01:35:50.014Z,930.15
2018-02-25T01:36:03.054Z,930.18
2018-02-25T01:36:16.073Z,930.17
2018-02-25T01:36:28.620Z,930.17
2018-02-25T01:36:41.175Z,930.17
2018-02-25T01:36:54.321Z,930.16
2018-02-25T01:37:07.375Z,930.16
2018-02-25T01:37:20.430Z,930.2
2018-02-25T01:37:33.455Z,930.16
2018-02-25T01:37:46.569Z,930.17
2018-02-25T01:37:59.114Z,930.18
2018-02-25T01:38:12.183Z,930.19
2018-02-25T01:38:25.221Z,930.19
2018-02-25T01:38:38.290Z,930.17
2018-02-25T01:38:51.487Z,930.19
2018-02-25T01:39:04.046Z,930.18
2018-02-25T01:39:17.069Z,930.15
2018-02-25T01:39:29.643Z,930.17
2018-02-25T01:39:42.703Z,930.18
2018-02-25T01:39:55.756Z,930.15
2018-02-25T01:40:08.856Z,930.2
2018-02-25T01:40:21.921Z,930.21
2018-02-25T01:40:34.492Z,930.14
2018-02-25T01:40:47.051Z,930.19
2018-02-25T01:41:00.128Z,930.14
2018-02-25T01:41:13.164Z,930.15
2018-02-25T01:41:26.193Z,930.13
2018-02-25T01:41:39.208Z,930.15
2018-02-25T01:41:52.243Z,930.17
2018-02-25T01:42:05.663Z,930.13
2018-02-25T01:42:18.724Z,930.14
2018-02-25T01:42:31.295Z,930.11
2018-02-25T01:42:43.897Z,930.09
2018-02-25T01:42:56.473Z,930.09
2018-02-25T01:43:09.533Z,930.1
2018-02-25T01:43:22.157Z,930.07
2018-02-25T01:43:35.181Z,930.05
2018-02-25T01:43:48.212Z,930.06
2018-02-25T01:44:01.263Z,930.1
2018-02-25T01:44:13.884Z,930.12
2018-02-25T01:44:26.462Z,930.13
2018-02-25T01:44:39.091Z,930.1
2018-02-25T01:44:52.048Z,930.05
2018-02-25T01:45:04.579Z,930.13
2018-02-25T01:45:17.697Z,930.09
2018-02-25T01:45:30.308Z,930.1
2018-02-25T01:45:42.841Z,930.08
2018-02-25T01:45:55.883Z,930.07
2018-02-25T01:46:07.959Z,930.1
2018-02-25T01:46:21.008Z,930.08
2018-02-25T01:46:33.568Z,930.08
2018-02-25T01:46:46.615Z,930.09
2018-02-25T01:46:59.158Z,930.12
2018-02-25T01:47:12.160Z,930.15
2018-02-25T01:47:25.623Z,930.07
2018-02-25T01:47:38.660Z,930.12
2018-02-25T01:47:51.273Z,930.1
2018-02-25T01:48:04.331Z,930.07
2018-02-25T01:48:16.928Z,930.1
2018-02-25T01:48:29.516Z,930.14
2018-02-25T01:48:42.354Z,930.1
2018-02-25T01:48:55.363Z,930.11
2018-02-25T01:49:08.394Z,930.08
2018-02-25T01:49:21.400Z,930.12
2018-02-25T01:49:33.947Z,930.11
2018-02-25T01:49:46.059Z,930.09
2018-02-25T01:49:59.090Z,930.09
2018-02-25T01:50:12.103Z,930.1
2018-02-25T01:50:25.176Z,930.1
2018-02-25T01:50:37.317Z,930.07
2018-02-25T01:50:50.308Z,930.08
2018-02-25T01:51:02.879Z,930.07
2018-02-25T01:51:15.940Z,930.09
2018-02-25T01:51:29.018Z,930.05
2018-02-25T01:51:42.068Z,930.09
2018-02-25T01:51:54.635Z,930.05
2018-02-25T01:52:07.213Z,930.08
2018-02-25T01:52:20.258Z,930.09
2018-02-25T01:52:32.326Z,930.09
2018-02-25T01:52:44.911Z,930.05
2018-02-25T01:52:57.916Z,930.05
2018-02-25T01:53:10.473Z,930.05
2018-02-25T01:53:23.588Z,930.06
2018-02-25T01:53:36.175Z,930.07
2018-02-25T01:53:48.950Z,930.08
2018-02-25T01:54:01.492Z,930.07
2018-02-25T01:54:14.073Z,930.08
2018-02-25T01:54:27.099Z,930.07
2018-02-25T01:54:40.111Z,930.1
2018-02-25T01:54:53.140Z,930.06
2018-02-25T01:55:06.197Z,930.05
2018-02-25T01:55:18.747Z,930.06
2018-02-25T01:55:31.263Z,930.06
2018-02-25T01:55:43.822Z,930.03
2018-02-25T01:55:56.428Z,930.06
2018-02-25T01:56:09.498Z,930.08
2018-02-25T01:56:22.571Z,930.04
2018-02-25T01:56:35.636Z,930.02
2018-02-25T01:56:48.183Z,930.03
2018-02-25T01:57:01.296Z,930.02
2018-02-25T01:57:14.365Z,930.09
2018-02-25T01:57:27.421Z,930.01
2018-02-25T01:57:39.947Z,930.02
2018-02-25T01:57:53.038Z,930.03
2018-02-25T01:58:06.137Z,930
2018-02-25T01:58:19.166Z,929.99
2018-02-25T01:58:32.244Z,930.02
2018-02-25T01:58:45.281Z,930
2018-02-25T01:58:58.261Z,930.07
2018-02-25T01:59:11.277Z,930.03
2018-02-25T01:59:24.495Z,930.04
2018-02-25T01:59:37.039Z,930.05
2018-02-25T01:59:49.605Z,930.04
2018-02-25T02:00:02.721Z,930.06
2018-02-25T02:00:15.785Z,930.08
2018-02-25T02:00:28.407Z,930.06
2018-02-25T02:00:41.423Z,930.03
2018-02-25T02:00:54.455Z,929.99
2018-02-25T02:01:07.526Z,930.08
2018-02-25T02:01:20.623Z,930.05
2018-02-25T02:01:33.211Z,930.06
2018-02-25T02:01:45.801Z,930.05
2018-02-25T02:01:57.898Z,930.06
2018-02-25T02:02:10.934Z,930.09
2018-02-25T02:02:24.043Z,930.09
2018-02-25T02:02:37.061Z,930.1
2018-02-25T02:02:50.077Z,930.09
2018-02-25T02:03:02.658Z,930.11
2018-02-25T02:03:15.682Z,930.06
2018-02-25T02:03:28.279Z,930.08
2018-02-25T02:03:41.296Z,930.11
2018-02-25T02:03:54.404Z,930.11
2018-02-25T02:04:07.512Z,930.09
2018-02-25T02:04:20.531Z,930.1
2018-02-25T02:04:33.078Z,930.08
2018-02-25T02:04:45.657Z,930.12
2018-02-25T02:04:58.724Z,930.15
2018-02-25T02:05:11.759Z,930.09
2018-02-25T02:05:24.748Z,930.13
2018-02-25T02:05:37.752Z,930.09
2018-02-25T02:05:50.852Z,930.08
2018-02-25T02:06:03.442Z,930.09
2018-02-25T02:06:16.482Z,930.13
2018-02-25T02:06:29.579Z,930.12
2018-02-25T02:06:42.622Z,930.13
2018-02-25T02:06:55.642Z,930.09
2018-02-25T02:07:08.676Z,930.1
2018-02-25T02:07:21.234Z,930.13
2018-02-25T02:07:33.804Z,930.11
2018-02-25T02:07:45.898Z,930.12
2018-02-25T02:07:58.982Z,930.12
2018-02-25T02:08:11.991Z,930.1
2018-02-25T02:08:25.042Z,930.1
2018-02-25T02:08:37.163Z,930.1
2018-02-25T02:08:49.760Z,930.1
2018-02-25T02:09:02.820Z,930.08
2018-02-25T02:09:15.896Z,930.11
2018-02-25T02:09:28.479Z,930.07
2018-02-25T02:09:41.580Z,930.08
2018-02-25T02:09:53.684Z,930.15
2018-02-25T02:10:06.255Z,930.1
2018-02-25T02:10:19.304Z,930.11
2018-02-25T02:10:31.870Z,930.11
2018-02-25T02:10:44.883Z,930.1
2018-02-25T02:10:56.989Z,930.1
2018-02-25T02:11:10.094Z,930.16
2018-02-25T02:11:23.201Z,930.13
2018-02-25T02:11:35.816Z,930.15
2018-02-25T02:11:50.338Z,930.12
2018-02-25T02:12:02.955Z,930.14
2018-02-25T02:12:18.685Z,930.15
2018-02-25T02:12:31.708Z,930.13
2018-02-25T02:12:44.745Z,930.12
2018-02-25T02:12:57.572Z,930.15
2018-02-25T02:13:10.596Z,930.1
2018-02-25T02:13:23.620Z,930.16
2018-02-25T02:13:36.688Z,930.14
2018-02-25T02:13:49.778Z,930.09
2018-02-25T02:14:02.851Z,930.13
2018-02-25T02:14:15.947Z,930.11
2018-02-25T02:14:28.610Z,930.13
2018-02-25T02:14:41.682Z,930.12
2018-02-25T02:14:54.752Z,930.15
2018-02-25T02:15:07.879Z,930.16
2018-02-25T02:15:20.872Z,930.13
2018-02-25T02:15:33.465Z,930.14
2018-02-25T02:15:48.062Z,930.17
2018-02-25T02:16:01.097Z,930.13
2018-02-25T02:16:13.700Z,930.13
2018-02-25T02:16:26.716Z,930.1
2018-02-25T02:16:39.804Z,930.16
2018-02-25T02:16:52.402Z,930.12
2018-02-25T02:17:05.481Z,930.13
2018-02-25T02:17:18.032Z,930.14
2018-02-25T02:17:30.688Z,930.11
2018-02-25T02:17:43.747Z,930.1
2018-02-25T02:17:56.769Z,930.1
2018-02-25T02:18:09.829Z,930.1
2018-02-25T02:18:22.867Z,930.09
2018-02-25T02:18:36.115Z,930.17
2018-02-25T02:18:49.151Z,930.13
2018-02-25T02:19:01.712Z,930.15
2018-02-25T02:19:14.250Z,930.12
2018-02-25T02:19:27.326Z,930.11
2018-02-25T02:19:39.851Z,930.12
2018-02-25T02:19:52.490Z,930.13
2018-02-25T02:20:05.585Z,930.15
2018-02-25T02:20:18.347Z,930.13
2018-02-25T02:20:31.387Z,930.11
2018-02-25T02:20:44.416Z,930.09
2018-02-25T02:20:57.466Z,930.1
2018-02-25T02:21:09.600Z,930.11
2018-02-25T02:21:22.676Z,930.07
2018-02-25T02:21:35.722Z,930.11
2018-02-25T02:21:48.815Z,930.05
2018-02-25T02:22:01.897Z,930.07
2018-02-25T02:22:14.934Z,930.05
2018-02-25T02:22:28.006Z,930.08
2018-02-25T02:22:41.042Z,930.07
2018-02-25T02:22:54.025Z,930.07
2018-02-25T02:23:07.037Z,930.09
2018-02-25T02:23:20.090Z,930.12
2018-02-25T02:23:33.138Z,930.1
2018-02-25T02:23:46.185Z,930.04
2018-02-25T02:23:59.294Z,930.08
2018-02-25T02:24:12.406Z,930.1
2018-02-25T02:24:25.008Z,930.06
2018-02-25T02:24:37.557Z,930.03
2018-02-25T02:24:50.090Z,930.05
2018-02-25T02:25:03.221Z,930.06
2018-02-25T02:25:15.281Z,930.07
2018-02-25T02:25:28.316Z,930.08
2018-02-25T02:25:41.324Z,930.05
2018-02-25T02:25:54.004Z,930.09
2018-02-25T02:26:07.053Z,930.06
2018-02-25T02:26:20.168Z,930.04
2018-02-25T02:26:33.294Z,930.06
2018-02-25T02:26:46.354Z,930.04
2018-02-25T02:26:59.452Z,930.05
2018-02-25T02:27:13.408Z,930.01
2018-02-25T02:27:26.434Z,930.04
2018-02-25T02:27:38.983Z,930
2018-02-25T02:27:51.110Z,930.02
2018-02-25T02:28:04.220Z,930.05
2018-02-25T02:28:16.810Z,930.06
2018-02-25T02:28:29.919Z,930.08
2018-02-25T02:28:42.012Z,930.03
2018-02-25T02:28:55.046Z,930.03
2018-02-25T02:29:08.124Z,930.03
2018-02-25T02:29:21.279Z,930.03
2018-02-25T02:29:34.330Z,930.06
2018-02-25T02:29:46.896Z,930.08
2018-02-25T02:30:00.000Z,930.07
2018-02-25T02:30:12.142Z,930.03
2018-02-25T02:30:24.742Z,930.02
2018-02-25T02:30:37.252Z,930.05
2018-02-25T02:30:49.847Z,930
2018-02-25T02:31:02.443Z,930.01
2018-02-25T02:31:15.071Z,930
2018-02-25T02:31:28.102Z,930.04
2018-02-25T02:31:41.180Z,929.98
2018-02-25T02:31:54.488Z,929.98
2018-02-25T02:32:07.492Z,929.97
2018-02-25T02:32:20.598Z,929.98
2018-02-25T02:32:33.676Z,929.98
2018-02-25T02:32:46.797Z,929.98
2018-02-25T02:32:59.903Z,929.96
2018-02-25T02:33:12.907Z,930.02
2018-02-25T02:33:25.938Z,930.03
2018-02-25T02:33:39.013Z,929.97
2018-02-25T02:33:53.065Z,929.97
2018-02-25T02:34:06.075Z,930
2018-02-25T02:34:18.203Z,929.95
2018-02-25T02:34:30.798Z,929.93
2018-02-25T02:34:43.442Z,929.96
2018-02-25T02:34:56.480Z,929.94
2018-02-25T02:35:09.572Z,929.96
2018-02-25T02:35:22.870Z,929.91
2018-02-25T02:35:35.937Z,929.94
2018-02-25T02:35:49.067Z,929.93
2018-02-25T02:36:02.172Z,929.93
2018-02-25T02:36:14.735Z,929.88
2018-02-25T02:36:27.842Z,929.92
2018-02-25T02:36:40.912Z,929.92
2018-02-25T02:36:53.501Z,929.85
2018-02-25T02:37:06.096Z,929.89
2018-02-25T02:37:18.777Z,929.91
2018-02-25T02:37:31.795Z,929.88
2018-02-25T02:37:44.861Z,929.91
2018-02-25T02:37:57.940Z,929.91
2018-02-25T02:38:11.038Z,929.94
2018-02-25T02:38:23.665Z,929.89
2018-02-25T02:38:36.730Z,929.93
2018-02-25T02:38:49.577Z,929.9
2018-02-25T02:39:02.630Z,929.91
2018-02-25T02:39:15.632Z,929.88
2018-02-25T02:39:28.228Z,929.9
2018-02-25T02:39:41.299Z,929.88
2018-02-25T02:39:54.370Z,929.87
2018-02-25T02:40:06.954Z,929.91
2018-02-25T02:40:20.013Z,929.91
2018-02-25T02:40:33.102Z,929.93
2018-02-25T02:40:44.765Z,929.93
2018-02-25T02:40:57.389Z,929.91
2018-02-25T02:41:10.500Z,929.9